Time;durP1;ratioP1;P1;durP2;ratioP2;P2;SDS_P1;SDS_P2;PMS_P1;PMS_P2;Temp;Humidity;BMP_temperature;BMP_pressure;BME280_temperature;BME280_humidity;BME280_pressure;Samples;Min_cycle;Max_cycle;Signal;HPM_P1;HPM_P2
2023/09/27 00:02:13;;;;;;;27.83;20.75;;;13.30;99.90;;;;;;6303899;22;20443;-86
2023/09/27 00:04:39;;;;;;;26.63;20.00;;;13.00;99.90;;;;;;6303021;22;20026;-86
2023/09/27 00:07:05;;;;;;;28.30;21.13;;;14.00;99.90;;;;;;6304385;22;20030;-86
2023/09/27 00:09:31;;;;;;;29.95;22.48;;;14.00;99.90;;;;;;6305218;22;20011;-86
2023/09/27 00:11:57;;;;;;;31.42;23.50;;;12.90;99.90;;;;;;6305389;22;20054;-86
2023/09/27 00:14:24;;;;;;;27.25;20.80;;;12.90;99.90;;;;;;6305717;22;20062;-86
2023/09/27 00:16:52;;;;;;;26.92;20.77;;;12.90;99.90;;;;;;6306398;22;20019;-86
2023/09/27 00:19:18;;;;;;;29.27;22.77;;;12.90;99.90;;;;;;6306999;22;20090;-85
2023/09/27 00:21:43;;;;;;;28.17;20.98;;;12.90;99.90;;;;;;6306053;22;20108;-86
2023/09/27 00:24:09;;;;;;;29.05;22.63;;;12.80;99.90;;;;;;6306306;22;20018;-86
2023/09/27 00:26:35;;;;;;;31.02;22.48;;;12.80;99.90;;;;;;6305716;22;20016;-86
2023/09/27 00:29:00;;;;;;;29.58;23.00;;;13.90;99.90;;;;;;6280380;22;20019;-86
2023/09/27 00:31:26;;;;;;;27.17;21.48;;;12.80;99.90;;;;;;6305985;22;20011;-86
2023/09/27 00:33:52;;;;;;;27.48;21.52;;;12.80;99.90;;;;;;6305645;22;20032;-86
2023/09/27 00:36:17;;;;;;;29.20;21.65;;;12.70;99.90;;;;;;6305579;22;20339;-86
2023/09/27 00:38:43;;;;;;;28.83;21.30;;;12.90;99.90;;;;;;6305840;22;20016;-86
2023/09/27 00:41:09;;;;;;;26.02;20.23;;;13.00;99.90;;;;;;6305384;22;20427;-86
2023/09/27 00:43:35;;;;;;;26.50;20.33;;;12.70;99.90;;;;;;6305667;22;20015;-86
2023/09/27 00:46:03;;;;;;;26.95;19.73;;;12.60;99.90;;;;;;6305996;22;20017;-86
2023/09/27 00:48:31;;;;;;;33.17;22.35;;;12.60;99.90;;;;;;6307303;22;20026;-86
2023/09/27 00:50:57;;;;;;;29.83;22.10;;;12.70;99.90;;;;;;6305575;22;20020;-86
2023/09/27 00:53:25;;;;;;;27.70;21.60;;;12.60;99.90;;;;;;6305999;22;20051;-86
2023/09/27 00:55:51;;;;;;;31.95;23.00;;;12.60;99.90;;;;;;6305136;22;20339;-86
2023/09/27 00:58:30;;;;;;;29.63;21.85;;;12.60;99.90;;;;;;6308098;22;20015;-86
2023/09/27 01:01:06;;;;;;;30.05;21.75;;;13.90;99.90;;;;;;6259399;22;20442;-86
2023/09/27 01:03:32;;;;;;;29.77;20.75;;;12.40;99.90;;;;;;6311303;22;20342;-85
2023/09/27 01:05:58;;;;;;;30.42;22.65;;;13.00;99.90;;;;;;6310927;22;20446;-86
2023/09/27 01:08:24;;;;;;;30.75;23.38;;;12.60;99.90;;;;;;6310066;22;20023;-86
2023/09/27 01:10:52;;;;;;;33.92;24.88;;;12.50;99.90;;;;;;6310575;22;20312;-86
2023/09/27 01:13:18;;;;;;;28.65;21.70;;;12.50;99.90;;;;;;6310768;22;20064;-86
2023/09/27 01:15:44;;;;;;;29.33;22.60;;;13.50;99.90;;;;;;6310474;22;20015;-86
2023/09/27 01:18:09;;;;;;;29.95;22.42;;;12.50;99.90;;;;;;6310420;22;20011;-86
2023/09/27 01:20:35;;;;;;;31.63;23.42;;;13.60;99.90;;;;;;6310841;22;20446;-86
2023/09/27 01:23:05;;;;;;;31.42;23.50;;;13.80;99.90;;;;;;6310638;22;20337;-86
2023/09/27 01:29:04;;;;;;;;;;;12.40;99.90;;;;;;6216921;23;20027;-86
2023/09/27 01:31:31;;;;;;;31.38;23.60;;;13.40;99.90;;;;;;6295130;22;20238;-86
2023/09/27 01:33:57;;;;;;;33.83;25.25;;;13.40;99.90;;;;;;6311030;22;20389;-86
2023/09/27 01:36:22;;;;;;;31.98;24.50;;;13.10;99.90;;;;;;6309342;22;20019;-86
2023/09/27 01:38:48;;;;;;;32.97;24.48;;;12.50;99.90;;;;;;6311094;22;20014;-86
2023/09/27 01:41:14;;;;;;;33.55;24.33;;;12.30;99.90;;;;;;6338575;22;20019;-86
2023/09/27 01:43:40;;;;;;;33.28;24.45;;;12.30;99.90;;;;;;6310507;22;20015;-86
2023/09/27 01:46:06;;;;;;;32.13;24.08;;;12.20;99.90;;;;;;6309700;22;20019;-86
2023/09/27 01:48:31;;;;;;;35.15;25.67;;;12.20;99.90;;;;;;6310759;22;20019;-85
2023/09/27 01:50:57;;;;;;;32.95;24.88;;;12.20;99.90;;;;;;6309983;22;20022;-85
2023/09/27 01:53:23;;;;;;;34.97;25.77;;;12.60;99.90;;;;;;6309897;22;20458;-86
2023/09/27 01:55:48;;;;;;;34.03;25.42;;;12.20;99.90;;;;;;6310591;22;20050;-86
2023/09/27 01:58:14;;;;;;;34.42;24.88;;;12.50;99.90;;;;;;6309654;22;20409;-86
2023/09/27 02:00:39;;;;;;;31.92;24.40;;;12.20;99.90;;;;;;6310457;22;20023;-86
2023/09/27 02:03:05;;;;;;;35.90;25.17;;;12.40;99.90;;;;;;6337938;22;20284;-86
2023/09/27 02:05:31;;;;;;;36.30;25.17;;;13.30;99.90;;;;;;6309862;22;20089;-85
2023/09/27 02:07:57;;;;;;;32.97;25.85;;;12.50;99.90;;;;;;6309333;22;20389;-86
2023/09/27 02:10:23;;;;;;;34.55;25.38;;;12.50;99.90;;;;;;6310367;22;20022;-85
2023/09/27 02:12:49;;;;;;;36.78;26.48;;;12.10;99.90;;;;;;6337760;22;20018;-86
2023/09/27 02:15:16;;;;;;;37.17;25.88;;;13.10;99.90;;;;;;6309865;22;20026;-86
2023/09/27 02:17:43;;;;;;;36.45;26.42;;;12.10;99.90;;;;;;6310793;22;20014;-86
2023/09/27 02:20:13;;;;;;;38.70;26.95;;;12.40;99.90;;;;;;6309254;22;20447;-86
2023/09/27 02:22:40;;;;;;;36.60;27.17;;;12.00;99.90;;;;;;6310616;22;20038;-86
2023/09/27 02:25:09;;;;;;;35.60;26.20;;;12.40;99.90;;;;;;6309497;22;20011;-86
2023/09/27 02:27:36;;;;;;;33.80;25.40;;;12.00;99.90;;;;;;6310266;22;20438;-86
2023/09/27 02:30:03;;;;;;;36.08;26.52;;;12.00;99.90;;;;;;6310576;22;20342;-86
2023/09/27 02:32:29;;;;;;;37.25;26.50;;;11.90;99.90;;;;;;6309790;22;20042;-86
2023/09/27 02:34:55;;;;;;;39.72;27.25;;;13.20;99.90;;;;;;6310219;22;20038;-86
2023/09/27 02:37:21;;;;;;;37.17;26.75;;;12.80;99.90;;;;;;6309999;22;20015;-86
2023/09/27 02:39:47;;;;;;;34.38;25.67;;;11.90;99.90;;;;;;6309897;22;20018;-86
2023/09/27 02:42:13;;;;;;;35.53;25.17;;;11.90;99.90;;;;;;6310004;22;20019;-86
2023/09/27 02:44:39;;;;;;;35.65;26.75;;;11.90;99.90;;;;;;6309802;22;20022;-86
2023/09/27 02:47:06;;;;;;;36.50;25.95;;;12.40;99.90;;;;;;6309495;22;20018;-86
2023/09/27 02:49:38;;;;;;;37.05;26.73;;;12.70;99.90;;;;;;6310283;22;20350;-86
2023/09/27 02:52:06;;;;;;;35.67;27.00;;;12.70;99.90;;;;;;6337925;22;20503;-86
2023/09/27 02:54:33;;;;;;;40.80;29.00;;;11.80;99.90;;;;;;6309842;22;20019;-86
2023/09/27 02:56:58;;;;;;;37.20;26.65;;;12.20;99.90;;;;;;6309797;22;20036;-86
2023/09/27 02:59:24;;;;;;;39.03;28.70;;;12.20;99.90;;;;;;6309710;22;20018;-86
2023/09/27 03:01:50;;;;;;;38.30;28.75;;;11.80;99.90;;;;;;6309819;22;20041;-86
2023/09/27 03:04:16;;;;;;;40.00;29.27;;;11.80;99.90;;;;;;6309652;22;20015;-86
2023/09/27 03:06:42;;;;;;;48.72;31.20;;;12.00;99.90;;;;;;6310204;22;20022;-86
2023/09/27 03:09:14;;;;;;;42.65;29.63;;;11.80;99.90;;;;;;6309098;22;20019;-86
2023/09/27 03:11:42;;;;;;;43.35;30.17;;;11.70;99.90;;;;;;6310382;22;20006;-86
2023/09/27 03:14:07;;;;;;;39.25;29.45;;;11.70;99.90;;;;;;6309911;22;20529;-86
2023/09/27 03:16:33;;;;;;;44.17;31.17;;;12.90;99.90;;;;;;6309516;22;20053;-86
2023/09/27 03:18:59;;;;;;;41.42;30.33;;;11.70;99.90;;;;;;6310378;22;20015;-85
2023/09/27 03:21:26;;;;;;;41.38;29.00;;;12.20;99.90;;;;;;6308846;22;20030;-86
2023/09/27 03:24:45;;;;;;;40.42;29.85;;;12.10;99.90;;;;;;6309390;22;20011;-86
2023/09/27 03:27:13;;;;;;;43.03;30.13;;;11.70;99.90;;;;;;6309531;22;20327;-86
2023/09/27 03:29:39;;;;;;;41.80;30.13;;;11.60;99.90;;;;;;6308603;22;20077;-86
2023/09/27 03:32:05;;;;;;;41.22;29.73;;;13.10;99.90;;;;;;6309537;22;20454;-86
2023/09/27 03:34:31;;;;;;;42.70;29.33;;;11.90;99.90;;;;;;6310126;22;20099;-86
2023/09/27 03:36:57;;;;;;;40.90;30.10;;;11.60;99.90;;;;;;6309546;22;20022;-86
2023/09/27 03:41:52;;;;;;;39.40;28.23;;;11.60;99.90;;;;;;6275837;22;20024;-86
2023/09/27 03:44:18;;;;;;;43.25;29.50;;;12.20;99.90;;;;;;6272617;22;20061;-86
2023/09/27 03:46:44;;;;;;;40.00;28.98;;;12.20;99.90;;;;;;6275562;22;20012;-86
2023/09/27 03:49:12;;;;;;;39.10;27.25;;;11.60;99.90;;;;;;6275826;22;20020;-86
2023/09/27 03:51:38;;;;;;;40.83;29.63;;;11.60;99.90;;;;;;6275183;22;20011;-86
2023/09/27 03:54:04;;;;;;;43.95;30.85;;;11.50;99.90;;;;;;6275847;22;20509;-86
2023/09/27 03:56:29;;;;;;;42.63;30.58;;;11.50;99.90;;;;;;6275460;22;20011;-84
2023/09/27 03:59:20;;;;;;;;;;;;;;;;;;;;;
2023/09/27 04:02:07;;;;;;;41.80;30.08;;;11.50;99.90;;;;;;6275224;22;20023;-84
2023/09/27 04:04:33;;;;;;;39.60;28.17;;;11.70;99.90;;;;;;6273186;22;20022;-86
2023/09/27 04:06:58;;;;;;;41.22;28.70;;;11.40;99.90;;;;;;6273059;22;20015;-86
2023/09/27 04:09:24;;;;;;;40.70;29.33;;;11.60;99.90;;;;;;6275218;22;20098;-84
2023/09/27 04:11:50;;;;;;;40.95;29.20;;;11.40;99.90;;;;;;6275184;22;20335;-84
2023/09/27 04:14:15;;;;;;;43.75;29.42;;;12.40;99.90;;;;;;6274797;22;20390;-84
2023/09/27 04:16:42;;;;;;;39.90;27.85;;;11.60;99.90;;;;;;6275531;22;20046;-84
2023/09/27 04:19:08;;;;;;;40.22;27.55;;;12.50;99.90;;;;;;6274745;22;20039;-84
2023/09/27 04:21:33;;;;;;;38.25;27.73;;;11.60;99.90;;;;;;6275510;22;20506;-84
2023/09/27 04:23:59;;;;;;;39.03;27.90;;;11.30;99.90;;;;;;6275716;22;20051;-84
2023/09/27 04:26:25;;;;;;;38.42;26.90;;;11.70;99.90;;;;;;6274463;22;20170;-84
2023/09/27 04:28:52;;;;;;;39.63;28.00;;;11.30;99.90;;;;;;6275655;22;20065;-87
2023/09/27 04:31:18;;;;;;;39.00;27.27;;;11.30;99.90;;;;;;6274975;22;20103;-85
2023/09/27 04:33:44;;;;;;;38.90;28.15;;;12.50;99.90;;;;;;6274645;22;20047;-84
2023/09/27 04:36:15;;;;;;;39.47;28.75;;;11.40;99.90;;;;;;6274405;22;20012;-86
2023/09/27 04:38:41;;;;;;;45.05;30.70;;;11.20;99.90;;;;;;6275547;22;20049;-84
2023/09/27 04:41:08;;;;;;;45.53;29.88;;;12.00;99.90;;;;;;6295758;22;20019;-84
2023/09/27 04:43:34;;;;;;;45.55;29.02;;;12.40;99.90;;;;;;6306104;22;20047;-87
2023/09/27 04:45:59;;;;;;;42.97;29.02;;;11.60;99.90;;;;;;6305400;22;20019;-84
2023/09/27 04:48:25;;;;;;;41.13;28.38;;;12.30;99.90;;;;;;6305321;22;20101;-85
2023/09/27 04:50:51;;;;;;;41.38;27.73;;;11.30;99.90;;;;;;6306734;22;20011;-84
2023/09/27 04:53:16;;;;;;;39.42;26.40;;;11.70;99.90;;;;;;6304935;22;20019;-84
2023/09/27 04:55:42;;;;;;;39.03;27.13;;;11.90;99.90;;;;;;6305972;22;20011;-84
2023/09/27 04:58:08;;;;;;;41.08;27.77;;;12.20;99.90;;;;;;6305689;22;20385;-84
2023/09/27 05:00:33;;;;;;;40.78;28.35;;;11.10;99.90;;;;;;6305485;22;20011;-84
2023/09/27 05:02:59;;;;;;;41.63;28.40;;;11.40;99.90;;;;;;6305992;22;20022;-86
2023/09/27 05:05:25;;;;;;;41.17;28.25;;;11.90;99.90;;;;;;6305654;22;20061;-84
2023/09/27 05:07:50;;;;;;;38.25;26.60;;;12.20;99.90;;;;;;6305549;22;20019;-84
2023/09/27 05:10:16;;;;;;;39.80;26.63;;;11.10;99.90;;;;;;6305416;22;20343;-84
2023/09/27 05:12:42;;;;;;;38.47;27.52;;;12.10;99.90;;;;;;6305869;22;20026;-84
2023/09/27 05:15:11;;;;;;;38.50;26.15;;;11.10;99.90;;;;;;6304763;22;20060;-84
2023/09/27 05:17:39;;;;;;;42.13;26.80;;;11.00;99.90;;;;;;6305771;22;20113;-84
2023/09/27 05:20:11;;;;;;;37.17;25.83;;;11.40;99.90;;;;;;6305691;22;20094;-84
2023/09/27 05:22:37;;;;;;;39.95;27.17;;;11.00;99.90;;;;;;6304929;22;20462;-84
2023/09/27 05:25:05;;;;;;;39.55;27.30;;;11.00;99.90;;;;;;6304196;22;20324;-84
2023/09/27 05:27:31;;;;;;;41.15;27.38;;;11.00;99.90;;;;;;6305766;22;20015;-84
2023/09/27 05:29:57;;;;;;;41.65;27.00;;;11.00;99.90;;;;;;6304408;22;20007;-85
2023/09/27 05:32:23;;;;;;;40.03;26.15;;;12.10;99.90;;;;;;6305648;22;20520;-85
2023/09/27 05:34:50;;;;;;;39.30;26.52;;;11.10;99.90;;;;;;6306014;22;20072;-84
2023/09/27 05:37:15;;;;;;;39.42;26.10;;;11.10;99.90;;;;;;6304597;22;20650;-85
2023/09/27 05:39:41;;;;;;;39.67;26.60;;;11.10;99.90;;;;;;6308568;22;20105;-87
2023/09/27 05:42:06;;;;;;;44.22;28.40;;;11.50;99.90;;;;;;6309203;22;20068;-82
2023/09/27 05:44:32;;;;;;;42.08;27.15;;;11.50;99.90;;;;;;6310563;22;20153;-81
2023/09/27 05:46:58;;;;;;;39.55;26.92;;;11.10;99.90;;;;;;6337945;22;20330;-82
2023/09/27 05:49:24;;;;;;;40.03;28.00;;;11.20;99.90;;;;;;6337108;22;20030;-82
2023/09/27 05:51:52;;;;;;;45.53;29.50;;;11.90;99.90;;;;;;6310478;22;20011;-82
2023/09/27 05:54:21;;;;;;;47.03;28.00;;;11.30;99.90;;;;;;6310177;22;20106;-81
2023/09/27 05:56:51;;;;;;;49.03;31.00;;;11.40;99.90;;;;;;6310112;22;20017;-82
2023/09/27 05:59:17;;;;;;;47.17;29.95;;;11.40;99.90;;;;;;6309948;22;20019;-83
2023/09/27 06:01:43;;;;;;;46.75;30.00;;;11.50;99.90;;;;;;6310501;22;20376;-81
2023/09/27 06:04:10;;;;;;;53.33;31.85;;;11.70;99.90;;;;;;6309633;22;20017;-81
2023/09/27 06:06:36;;;;;;;53.78;32.17;;;11.90;99.90;;;;;;6337894;22;20017;-81
2023/09/27 06:09:05;;;;;;;48.47;31.48;;;12.20;99.90;;;;;;6337969;22;20113;-83
2023/09/27 06:11:35;;;;;;;49.20;31.05;;;12.70;99.90;;;;;;6310095;22;20003;-82
2023/09/27 06:14:01;;;;;;;49.83;32.97;;;11.80;99.90;;;;;;6310776;22;20042;-82
2023/09/27 06:16:26;;;;;;;48.35;34.35;;;11.90;99.90;;;;;;6310192;22;20013;-81
2023/09/27 06:18:52;;;;;;;53.00;33.45;;;12.00;99.90;;;;;;6309806;22;20026;-82
2023/09/27 06:21:19;;;;;;;54.72;34.92;;;12.00;99.90;;;;;;6310092;22;20096;-81
2023/09/27 06:23:44;;;;;;;53.35;33.35;;;12.10;99.90;;;;;;6338498;22;20014;-81
2023/09/27 06:26:10;;;;;;;49.55;33.47;;;12.20;99.90;;;;;;6308806;22;20034;-81
2023/09/27 06:28:39;;;;;;;49.30;34.78;;;12.30;99.90;;;;;;6310480;22;20019;-82
2023/09/27 06:31:08;;;;;;;51.35;33.88;;;12.30;99.90;;;;;;6309989;22;20018;-82
2023/09/27 06:33:39;;;;;;;49.88;33.10;;;12.40;99.90;;;;;;6309687;22;20046;-82
2023/09/27 06:36:11;;;;;;;49.13;33.58;;;12.40;99.90;;;;;;6310321;22;20015;-80
2023/09/27 06:38:37;;;;;;;50.53;33.28;;;12.50;99.90;;;;;;6309644;22;20014;-80
2023/09/27 06:41:03;;;;;;;50.45;33.50;;;12.60;99.90;;;;;;6309691;22;20022;-81
2023/09/27 06:43:31;;;;;;;43.75;30.83;;;13.90;99.90;;;;;;6310118;22;20014;-82
2023/09/27 06:45:57;;;;;;;46.13;32.65;;;13.60;99.90;;;;;;6309689;22;20046;-82
2023/09/27 06:48:26;;;;;;;45.53;31.30;;;12.80;99.90;;;;;;6309557;22;20029;-82
2023/09/27 06:50:51;;;;;;;46.33;30.55;;;13.10;99.90;;;;;;6338129;22;20042;-82
2023/09/27 06:53:17;;;;;;;43.25;30.55;;;13.10;99.90;;;;;;6309165;22;20015;-82
2023/09/27 06:55:49;;;;;;;47.67;31.05;;;12.90;99.90;;;;;;6310268;22;20026;-81
2023/09/27 06:58:15;;;;;;;51.72;31.38;;;12.90;99.90;;;;;;6309871;22;20026;-82
2023/09/27 07:00:41;;;;;;;48.47;32.53;;;13.00;99.90;;;;;;6308583;22;20011;-81
2023/09/27 07:03:07;;;;;;;52.00;32.78;;;13.00;99.90;;;;;;6309423;22;20014;-81
2023/09/27 07:05:35;;;;;;;45.80;31.83;;;13.10;99.90;;;;;;6309818;22;20446;-82
2023/09/27 07:08:01;;;;;;;46.00;33.10;;;13.20;99.90;;;;;;6307643;22;20014;-81
2023/09/27 07:10:28;;;;;;;44.95;32.38;;;13.20;99.90;;;;;;6309464;22;20022;-82
2023/09/27 07:12:54;;;;;;;46.92;31.83;;;13.30;99.90;;;;;;6310418;22;20014;-82
2023/09/27 07:15:20;;;;;;;45.65;32.63;;;13.40;99.90;;;;;;6309122;22;20025;-81
2023/09/27 07:17:47;;;;;;;47.08;32.65;;;14.10;99.90;;;;;;6310417;22;20021;-81
2023/09/27 07:20:32;;;;;;;46.53;33.63;;;13.60;99.90;;;;;;6310831;22;20015;-83
2023/09/27 07:22:59;;;;;;;47.03;32.83;;;13.70;99.90;;;;;;6312229;22;20438;-82
2023/09/27 07:25:25;;;;;;;45.10;31.73;;;13.80;99.90;;;;;;6312107;22;20015;-81
2023/09/27 07:27:51;;;;;;;46.10;32.97;;;14.90;99.90;;;;;;6311659;22;20018;-82
2023/09/27 07:30:18;;;;;;;46.15;32.28;;;14.00;99.90;;;;;;6311359;22;20327;-81
2023/09/27 07:32:47;;;;;;;45.85;32.03;;;14.20;99.90;;;;;;6312508;22;20011;-81
2023/09/27 07:35:16;;;;;;;45.35;31.98;;;14.30;99.90;;;;;;6311329;22;20064;-81
2023/09/27 07:37:43;;;;;;;40.60;31.45;;;14.40;99.90;;;;;;6312373;22;20304;-84
2023/09/27 07:40:11;;;;;;;42.20;31.45;;;14.50;99.90;;;;;;6306606;22;20023;-82
2023/09/27 07:42:44;;;;;;;44.10;31.92;;;14.60;99.90;;;;;;6306499;22;20026;-81
2023/09/27 07:45:22;;;;;;;41.40;31.45;;;14.60;99.90;;;;;;6306740;22;20090;-81
2023/09/27 07:47:50;;;;;;;43.03;30.95;;;14.70;99.90;;;;;;6307229;22;20026;-81
2023/09/27 07:50:19;;;;;;;41.28;29.60;;;14.80;99.90;;;;;;6305802;22;20016;-81
2023/09/27 07:52:46;;;;;;;38.75;29.65;;;14.90;99.90;;;;;;6307110;22;20015;-81
2023/09/27 07:55:14;;;;;;;38.65;28.48;;;14.90;99.90;;;;;;6306510;22;20335;-81
2023/09/27 07:57:43;;;;;;;39.35;29.10;;;15.80;99.90;;;;;;6306207;22;20021;-81
2023/09/27 08:00:10;;;;;;;37.90;28.40;;;15.60;99.90;;;;;;6306287;22;20008;-81
2023/09/27 08:02:37;;;;;;;38.67;27.73;;;15.10;99.90;;;;;;6307073;22;20442;-81
2023/09/27 08:05:09;;;;;;;38.47;28.08;;;15.10;99.90;;;;;;6305949;22;20056;-82
2023/09/27 08:07:36;;;;;;;37.00;27.40;;;15.20;99.90;;;;;;6306848;22;20027;-81
2023/09/27 08:10:02;;;;;;;42.08;27.85;;;16.10;99.90;;;;;;6306315;22;20784;-82
2023/09/27 08:12:31;;;;;;;44.08;29.15;;;15.20;99.90;;;;;;6306385;22;20382;-82
2023/09/27 08:15:03;;;;;;;43.50;28.75;;;15.90;99.90;;;;;;6306729;22;20034;-81
2023/09/27 08:17:30;;;;;;;37.58;28.42;;;15.30;99.90;;;;;;6306351;22;20435;-81
2023/09/27 08:19:57;;;;;;;38.80;29.13;;;15.40;99.90;;;;;;6306721;22;20022;-81
2023/09/27 08:22:22;;;;;;;39.95;28.40;;;15.40;99.90;;;;;;6306353;22;20027;-81
2023/09/27 08:24:48;;;;;;;37.47;27.58;;;15.40;99.90;;;;;;6306038;22;20099;-81
2023/09/27 08:27:13;;;;;;;38.45;28.40;;;15.40;99.90;;;;;;6306078;22;20026;-81
2023/09/27 08:29:39;;;;;;;38.78;28.15;;;15.50;99.90;;;;;;6306555;22;20058;-81
2023/09/27 08:32:08;;;;;;;37.83;29.13;;;15.50;99.90;;;;;;6305061;22;20019;-81
2023/09/27 08:34:34;;;;;;;40.72;28.98;;;15.60;99.90;;;;;;6306565;22;20015;-81
2023/09/27 08:37:00;;;;;;;39.08;28.45;;;16.10;99.90;;;;;;6306706;22;20435;-81
2023/09/27 08:39:27;;;;;;;38.47;29.02;;;16.40;99.90;;;;;;6305393;22;20057;-81
2023/09/27 08:41:57;;;;;;;37.60;28.30;;;15.90;99.90;;;;;;6306623;22;20022;-81
2023/09/27 08:44:26;;;;;;;38.50;28.67;;;16.00;99.90;;;;;;6306124;22;20178;-81
2023/09/27 08:46:56;;;;;;;36.88;27.45;;;16.50;99.90;;;;;;6305461;22;20012;-81
2023/09/27 08:49:24;;;;;;;37.55;26.50;;;16.10;99.90;;;;;;6306347;22;20435;-82
2023/09/27 08:51:51;;;;;;;36.67;27.00;;;16.80;99.90;;;;;;6307100;22;20007;-81
2023/09/27 08:54:19;;;;;;;36.45;27.23;;;16.40;99.90;;;;;;6305323;22;20015;-80
2023/09/27 08:56:48;;;;;;;37.72;27.63;;;16.60;99.90;;;;;;6306257;22;20023;-81
2023/09/27 08:59:14;;;;;;;35.70;27.40;;;16.60;99.90;;;;;;6305373;22;20011;-82
2023/09/27 09:01:42;;;;;;;38.38;26.75;;;17.10;99.90;;;;;;6307955;22;20051;-81
2023/09/27 09:04:08;;;;;;;34.30;26.20;;;16.70;99.90;;;;;;6306155;22;20015;-82
2023/09/27 09:06:35;;;;;;;35.90;26.20;;;16.80;99.90;;;;;;6305745;22;20343;-81
2023/09/27 09:09:10;;;;;;;34.08;25.02;;;16.90;99.90;;;;;;6306262;22;20011;-82
2023/09/27 09:11:47;;;;;;;32.70;24.70;;;17.00;99.90;;;;;;6306428;22;20015;-81
2023/09/27 09:14:17;;;;;;;31.60;23.85;;;17.20;99.90;;;;;;6304910;22;20019;-82
2023/09/27 09:16:51;;;;;;;32.50;23.83;;;17.20;99.90;;;;;;6306139;22;20019;-82
2023/09/27 09:19:24;;;;;;;32.92;23.63;;;17.40;99.90;;;;;;6305770;22;20026;-82
2023/09/27 09:21:58;;;;;;;33.30;24.83;;;17.40;99.90;;;;;;6305267;22;20019;-82
2023/09/27 09:24:34;;;;;;;32.47;25.20;;;17.50;99.90;;;;;;6295846;22;20019;-81
2023/09/27 09:27:12;;;;;;;31.98;24.38;;;17.70;99.90;;;;;;6306050;22;20031;-82
2023/09/27 09:29:46;;;;;;;31.42;24.45;;;17.90;99.90;;;;;;6305924;22;20022;-82
2023/09/27 09:32:18;;;;;;;30.73;23.88;;;18.20;99.90;;;;;;6305628;22;20011;-82
2023/09/27 09:34:45;;;;;;;30.17;21.50;;;18.60;99.90;;;;;;6305641;22;20015;-82
2023/09/27 09:37:20;;;;;;;29.33;21.48;;;18.80;99.90;;;;;;6305334;22;20047;-82
2023/09/27 09:39:47;;;;;;;31.10;22.10;;;19.00;99.90;;;;;;6306186;22;20065;-82
2023/09/27 09:42:28;;;;;;;27.80;21.00;;;19.10;99.90;;;;;;6304684;22;20090;-81
2023/09/27 09:45:00;;;;;;;27.65;21.48;;;19.30;99.90;;;;;;6305968;22;20481;-82
2023/09/27 09:47:28;;;;;;;29.00;22.50;;;19.50;99.90;;;;;;6305504;22;20011;-81
2023/09/27 09:49:54;;;;;;;33.60;21.80;;;19.60;99.90;;;;;;6304908;22;20347;-82
2023/09/27 09:52:27;;;;;;;33.35;22.10;;;19.80;99.90;;;;;;6305615;22;20497;-82
2023/09/27 09:54:57;;;;;;;29.50;21.08;;;20.00;99.90;;;;;;6306012;22;20437;-82
2023/09/27 09:57:31;;;;;;;27.95;20.58;;;20.10;99.90;;;;;;6304727;22;20015;-82
2023/09/27 10:00:17;;;;;;;26.88;19.80;;;20.10;99.90;;;;;;6306261;22;20363;-81
2023/09/27 10:03:04;;;;;;;24.67;19.25;;;20.10;99.90;;;;;;6305054;22;20440;-81
2023/09/27 10:05:51;;;;;;;25.48;18.20;;;20.00;99.90;;;;;;6307071;22;20064;-82
2023/09/27 10:08:18;;;;;;;24.10;17.42;;;19.90;99.90;;;;;;6305361;22;20019;-82
2023/09/27 10:10:44;;;;;;;25.25;17.42;;;19.90;99.90;;;;;;6304802;22;20007;-82
2023/09/27 10:13:10;;;;;;;23.85;17.92;;;20.00;99.90;;;;;;6305025;22;20088;-82
2023/09/27 10:15:39;;;;;;;25.30;19.33;;;20.00;99.90;;;;;;6305531;22;20023;-82
2023/09/27 10:18:22;;;;;;;26.20;18.60;;;20.10;99.90;;;;;;6304474;22;20015;-82
2023/09/27 10:21:00;;;;;;;;;;;20.30;99.90;;;;;;6306174;22;20039;-82
2023/09/27 10:23:26;;;;;;;23.63;17.92;;;20.50;99.90;;;;;;6304696;22;19989;-82
2023/09/27 10:25:52;;;;;;;24.33;19.00;;;20.70;99.90;;;;;;6305257;22;20477;-82
2023/09/27 10:28:17;;;;;;;23.40;17.52;;;21.00;99.90;;;;;;6305141;22;20023;-82
2023/09/27 10:31:04;;;;;;;22.92;17.95;;;21.20;99.90;;;;;;6304826;22;20548;-82
2023/09/27 10:33:30;;;;;;;24.30;18.88;;;21.20;99.90;;;;;;6306779;22;20022;-82
2023/09/27 10:36:02;;;;;;;23.63;18.85;;;21.10;99.90;;;;;;6305450;22;20007;-82
2023/09/27 10:38:43;;;;;;;23.30;18.80;;;21.10;99.90;;;;;;6304539;22;20019;-82
2023/09/27 10:41:09;;;;;;;23.98;19.00;;;20.80;99.90;;;;;;6304677;22;20012;-83
2023/09/27 10:43:35;;;;;;;22.50;17.83;;;20.90;99.90;;;;;;6305486;22;20343;-82
2023/09/27 10:46:04;;;;;;;23.00;17.52;;;20.80;99.90;;;;;;6304453;22;20103;-83
2023/09/27 10:48:31;;;;;;;24.77;18.10;;;21.30;99.90;;;;;;6305365;22;20026;-83
2023/09/27 10:50:57;;;;;;;24.40;17.45;;;21.40;99.90;;;;;;6305577;22;20090;-83
2023/09/27 10:53:29;;;;;;;22.75;17.00;;;21.30;99.90;;;;;;6304338;22;20080;-83
2023/09/27 10:55:55;;;;;;;19.75;16.33;;;21.30;99.90;;;;;;6305474;22;20007;-83
2023/09/27 10:58:21;;;;;;;20.77;15.00;;;21.50;99.90;;;;;;6306849;22;20410;-82
2023/09/27 11:01:01;;;;;;;20.85;15.13;;;21.70;99.90;;;;;;6304069;22;20022;-81
2023/09/27 11:03:29;;;;;;;19.73;14.63;;;21.90;99.90;;;;;;6305127;22;20007;-82
2023/09/27 11:06:15;;;;;;;19.50;13.90;;;22.10;99.90;;;;;;6304955;22;20019;-81
2023/09/27 11:08:41;;;;;;;17.88;13.45;;;22.00;99.90;;;;;;6305130;22;20019;-81
2023/09/27 11:11:07;;;;;;;21.95;14.85;;;22.10;99.90;;;;;;6304943;22;20026;-82
2023/09/27 11:13:34;;;;;;;20.30;13.25;;;22.00;99.90;;;;;;6304315;22;20026;-83
2023/09/27 11:16:20;;;;;;;18.95;12.90;;;21.90;99.90;;;;;;6285314;22;20031;-82
2023/09/27 11:18:51;;;;;;;18.23;13.02;;;21.80;99.90;;;;;;6273347;22;20032;-79
2023/09/27 11:21:18;;;;;;;19.75;12.40;;;21.70;99.90;;;;;;6271685;22;20043;-81
2023/09/27 11:23:59;;;;;;;19.13;13.02;;;21.70;99.90;;;;;;6275614;22;20113;-80
2023/09/27 11:26:26;;;;;;;17.02;11.88;;;21.60;99.90;;;;;;6275669;22;20015;-81
2023/09/27 11:29:02;;;;;;;16.15;11.30;;;21.70;99.90;;;;;;6272062;22;20047;-80
2023/09/27 11:31:36;;;;;;;17.70;11.52;;;21.80;99.90;;;;;;6273541;22;20054;-82
2023/09/27 11:34:16;;;;;;;16.38;11.02;;;21.90;99.90;;;;;;6273394;22;20023;-81
2023/09/27 11:36:49;;;;;;;16.38;12.00;;;22.00;99.90;;;;;;6273507;22;20428;-81
2023/09/27 11:39:16;;;;;;;;;;;22.10;99.90;;;;;;6273672;22;20051;-82
2023/09/27 11:41:46;;;;;;;19.10;12.20;;;21.90;99.90;;;;;;6272952;22;19919;-80
2023/09/27 11:44:19;;;;;;;16.35;11.57;;;21.90;99.90;;;;;;6273463;22;20019;-83
2023/09/27 11:46:45;;;;;;;;;;;21.90;99.90;;;;;;6274601;22;20008;-83
2023/09/27 11:49:10;;;;;;;15.23;10.27;;;21.90;99.90;;;;;;6273042;22;20004;-82
2023/09/27 11:51:37;;;;;;;15.93;9.75;;;22.10;99.90;;;;;;6274182;22;20098;-82
2023/09/27 11:54:04;;;;;;;17.60;10.82;;;22.40;99.90;;;;;;6274244;22;20026;-82
2023/09/27 11:56:30;;;;;;;16.65;11.10;;;22.60;99.90;;;;;;6273334;22;20026;-82
2023/09/27 11:58:56;;;;;;;16.52;11.70;;;22.70;99.90;;;;;;6274162;22;20008;-83
2023/09/27 12:01:22;;;;;;;15.52;10.00;;;22.70;99.90;;;;;;6273700;22;20389;-82
2023/09/27 12:03:47;;;;;;;14.30;9.75;;;22.80;99.90;;;;;;6273354;22;20031;-82
2023/09/27 12:06:13;;;;;;;16.02;8.95;;;22.90;99.90;;;;;;6273690;22;20188;-82
2023/09/27 12:08:39;;;;;;;14.38;9.30;;;22.70;99.90;;;;;;6275290;22;20447;-82
2023/09/27 12:11:04;;;;;;;15.27;9.55;;;22.70;99.90;;;;;;6275730;22;20027;-84
2023/09/27 12:13:30;;;;;;;15.35;9.95;;;22.50;99.90;;;;;;6275565;22;20012;-82
2023/09/27 12:15:55;;;;;;;13.18;8.45;;;22.30;99.90;;;;;;6289757;22;20031;-83
2023/09/27 12:18:22;;;;;;;12.65;8.18;;;22.20;99.90;;;;;;6305564;22;20466;-82
2023/09/27 12:20:48;;;;;;;13.20;8.02;;;22.10;99.90;;;;;;6306363;22;20042;-82
2023/09/27 12:23:14;;;;;;;13.43;8.13;;;22.10;99.90;;;;;;6306956;22;20769;-84
2023/09/27 12:25:39;;;;;;;15.05;8.07;;;22.10;99.90;;;;;;6305928;22;20012;-82
2023/09/27 12:28:06;;;;;;;11.93;7.22;;;22.10;99.90;;;;;;6305578;22;20145;-83
2023/09/27 12:30:31;;;;;;;14.02;7.80;;;22.10;99.90;;;;;;6305483;22;20011;-83
2023/09/27 12:32:57;;;;;;;12.38;7.30;;;22.10;99.90;;;;;;6306159;22;20023;-83
2023/09/27 12:35:23;;;;;;;13.85;8.35;;;22.00;99.90;;;;;;6305814;22;20086;-83
2023/09/27 12:37:49;;;;;;;13.82;8.27;;;22.00;99.90;;;;;;6305105;22;20023;-83
2023/09/27 12:40:14;;;;;;;13.05;8.00;;;22.00;99.90;;;;;;6305635;22;20011;-83
2023/09/27 12:42:40;;;;;;;14.35;7.97;;;22.10;99.90;;;;;;6305803;22;20343;-83